sensor_id;sensor_type;location;lat;lon;timestamp;pressure;altitude;pressure_sealevel;temperature;humidity
52032;BME280;38044;45.148;39.604;2024-03-02T00:00:11;101354.00;;;0.34;68.66
52032;BME280;38044;45.148;39.604;2024-03-02T00:02:44;101358.69;;;0.39;68.70
52032;BME280;38044;45.148;39.604;2024-03-02T00:05:16;101345.44;;;0.26;69.02
52032;BME280;38044;45.148;39.604;2024-03-02T00:07:43;101367.03;;;0.22;69.13
52032;BME280;38044;45.148;39.604;2024-03-02T00:10:11;101368.84;;;0.15;69.47
52032;BME280;38044;45.148;39.604;2024-03-02T00:12:40;101357.03;;;0.11;69.52
52032;BME280;38044;45.148;39.604;2024-03-02T00:15:42;101364.59;;;0.14;69.96
52032;BME280;38044;45.148;39.604;2024-03-02T00:18:11;101364.38;;;0.22;68.35
52032;BME280;38044;45.148;39.604;2024-03-02T00:20:38;101355.81;;;0.07;69.25
52032;BME280;38044;45.148;39.604;2024-03-02T00:23:06;101349.72;;;0.00;69.58
52032;BME280;38044;45.148;39.604;2024-03-02T00:25:46;101348.72;;;0.01;69.74
52032;BME280;38044;45.148;39.604;2024-03-02T00:28:26;101339.75;;;-0.05;69.85
52032;BME280;38044;45.148;39.604;2024-03-02T00:31:07;101322.66;;;-0.15;69.87
52032;BME280;38044;45.148;39.604;2024-03-02T00:33:33;101339.94;;;-0.19;70.11
52032;BME280;38044;45.148;39.604;2024-03-02T00:36:01;101320.38;;;-0.32;70.30
52032;BME280;38044;45.148;39.604;2024-03-02T00:38:27;101311.25;;;-0.29;69.98
52032;BME280;38044;45.148;39.604;2024-03-02T00:40:54;101310.44;;;-0.30;69.94
52032;BME280;38044;45.148;39.604;2024-03-02T00:43:45;101315.13;;;-0.12;69.93
52032;BME280;38044;45.148;39.604;2024-03-02T00:46:18;101318.59;;;-0.11;69.96
52032;BME280;38044;45.148;39.604;2024-03-02T00:48:51;101319.41;;;-0.11;70.17
52032;BME280;38044;45.148;39.604;2024-03-02T00:51:18;101321.63;;;-0.14;70.24
52032;BME280;38044;45.148;39.604;2024-03-02T00:53:44;101298.47;;;-0.26;70.40
52032;BME280;38044;45.148;39.604;2024-03-02T00:56:11;101291.94;;;-0.23;70.35
52032;BME280;38044;45.148;39.604;2024-03-02T00:58:40;101300.47;;;-0.14;70.53
52032;BME280;38044;45.148;39.604;2024-03-02T01:01:06;101302.13;;;-0.13;70.67
52032;BME280;38044;45.148;39.604;2024-03-02T01:03:33;101297.66;;;-0.13;70.90
52032;BME280;38044;45.148;39.604;2024-03-02T01:05:59;101301.31;;;-0.07;70.42
52032;BME280;38044;45.148;39.604;2024-03-02T01:08:25;101297.47;;;-0.11;70.89
52032;BME280;38044;45.148;39.604;2024-03-02T01:10:52;101280.75;;;-0.12;70.99
52032;BME280;38044;45.148;39.604;2024-03-02T01:13:18;101271.63;;;-0.09;71.01
52032;BME280;38044;45.148;39.604;2024-03-02T01:15:43;101277.75;;;-0.02;71.16
52032;BME280;38044;45.148;39.604;2024-03-02T01:18:09;101284.84;;;0.04;71.08
52032;BME280;38044;45.148;39.604;2024-03-02T01:20:35;101272.47;;;-0.02;71.25
52032;BME280;38044;45.148;39.604;2024-03-02T01:23:02;101256.16;;;-0.12;71.49
52032;BME280;38044;45.148;39.604;2024-03-02T01:25:28;101263.91;;;0.03;71.67
52032;BME280;38044;45.148;39.604;2024-03-02T01:27:54;101260.22;;;-0.03;72.01
52032;BME280;38044;45.148;39.604;2024-03-02T01:30:20;101253.75;;;-0.07;72.06
52032;BME280;38044;45.148;39.604;2024-03-02T01:32:47;101247.25;;;-0.05;72.18
52032;BME280;38044;45.148;39.604;2024-03-02T01:35:13;101252.91;;;-0.01;72.24
52032;BME280;38044;45.148;39.604;2024-03-02T01:37:40;101253.94;;;-0.02;72.00
52032;BME280;38044;45.148;39.604;2024-03-02T01:40:07;101233.41;;;-0.13;72.27
52032;BME280;38044;45.148;39.604;2024-03-02T01:42:38;101253.34;;;-0.04;72.36
52032;BME280;38044;45.148;39.604;2024-03-02T01:45:08;101245.00;;;-0.08;72.65
52032;BME280;38044;45.148;39.604;2024-03-02T01:47:43;101245.19;;;-0.09;72.39
52032;BME280;38044;45.148;39.604;2024-03-02T01:50:11;101247.63;;;-0.14;72.71
52032;BME280;38044;45.148;39.604;2024-03-02T01:52:37;101250.09;;;-0.19;72.67
52032;BME280;38044;45.148;39.604;2024-03-02T01:55:03;101243.56;;;-0.24;73.09
52032;BME280;38044;45.148;39.604;2024-03-02T01:57:29;101227.09;;;-0.32;73.21
52032;BME280;38044;45.148;39.604;2024-03-02T01:59:56;101249.66;;;-0.23;73.28
52032;BME280;38044;45.148;39.604;2024-03-02T02:02:22;101240.31;;;-0.26;73.50
52032;BME280;38044;45.148;39.604;2024-03-02T02:04:48;101232.19;;;-0.31;73.69
52032;BME280;38044;45.148;39.604;2024-03-02T02:07:14;101250.50;;;-0.22;73.67
52032;BME280;38044;45.148;39.604;2024-03-02T02:09:43;101252.50;;;-0.25;73.79
52032;BME280;38044;45.148;39.604;2024-03-02T02:12:12;101254.75;;;-0.28;74.09
52032;BME280;38044;45.148;39.604;2024-03-02T02:14:38;101254.94;;;-0.30;74.22
52032;BME280;38044;45.148;39.604;2024-03-02T02:17:05;101244.38;;;-0.36;74.31
52032;BME280;38044;45.148;39.604;2024-03-02T02:19:31;101244.38;;;-0.30;74.60
52032;BME280;38044;45.148;39.604;2024-03-02T02:21:57;101237.88;;;-0.27;74.51
52032;BME280;38044;45.148;39.604;2024-03-02T02:24:22;101238.28;;;-0.30;74.76
52032;BME280;38044;45.148;39.604;2024-03-02T02:26:48;101231.16;;;-0.30;74.81
52032;BME280;38044;45.148;39.604;2024-03-02T02:29:14;101240.53;;;-0.34;74.80
52032;BME280;38044;45.148;39.604;2024-03-02T02:31:41;101245.19;;;-0.42;74.90
52032;BME280;38044;45.148;39.604;2024-03-02T02:34:07;101240.72;;;-0.49;74.98
52032;BME280;38044;45.148;39.604;2024-03-02T02:36:37;101241.94;;;-0.51;75.29
52032;BME280;38044;45.148;39.604;2024-03-02T02:39:04;101226.84;;;-0.64;75.03
52032;BME280;38044;45.148;39.604;2024-03-02T02:41:32;101252.03;;;-0.61;75.10
52032;BME280;38044;45.148;39.604;2024-03-02T02:43:58;101257.72;;;-0.64;75.36
52032;BME280;38044;45.148;39.604;2024-03-02T02:46:24;101242.69;;;-0.71;75.41
52032;BME280;38044;45.148;39.604;2024-03-02T02:48:49;101244.28;;;-0.83;75.53
52032;BME280;38044;45.148;39.604;2024-03-02T02:51:17;101250.38;;;-0.82;75.66
52032;BME280;38044;45.148;39.604;2024-03-02T02:53:43;101258.09;;;-0.81;75.70
52032;BME280;38044;45.148;39.604;2024-03-02T02:56:09;101241.38;;;-1.01;76.00
52032;BME280;38044;45.148;39.604;2024-03-02T02:58:35;101247.84;;;-1.04;75.96
52032;BME280;38044;45.148;39.604;2024-03-02T03:01:01;101262.13;;;-0.92;76.02
52032;BME280;38044;45.148;39.604;2024-03-02T03:03:27;101265.34;;;-0.96;75.90
52032;BME280;38044;45.148;39.604;2024-03-02T03:05:53;101260.06;;;-0.96;76.08
52032;BME280;38044;45.148;39.604;2024-03-02T03:08:19;101256.81;;;-0.98;76.02
52032;BME280;38044;45.148;39.604;2024-03-02T03:10:45;101261.47;;;-1.00;76.13
52032;BME280;38044;45.148;39.604;2024-03-02T03:13:10;101260.88;;;-1.02;76.26
52032;BME280;38044;45.148;39.604;2024-03-02T03:15:37;101270.41;;;-1.01;76.29
52032;BME280;38044;45.148;39.604;2024-03-02T03:18:06;101264.50;;;-1.03;76.44
52032;BME280;38044;45.148;39.604;2024-03-02T03:20:33;101268.16;;;-1.04;76.54
52032;BME280;38044;45.148;39.604;2024-03-02T03:23:00;101251.84;;;-1.15;76.26
52032;BME280;38044;45.148;39.604;2024-03-02T03:25:26;101262.88;;;-1.04;76.45
52032;BME280;38044;45.148;39.604;2024-03-02T03:27:51;101253.53;;;-1.07;76.32
52032;BME280;38044;45.148;39.604;2024-03-02T03:30:18;101258.38;;;-1.10;76.46
52032;BME280;38044;45.148;39.604;2024-03-02T03:32:44;101247.22;;;-1.13;76.41
52032;BME280;38044;45.148;39.604;2024-03-02T03:35:10;101251.84;;;-1.15;76.55
52032;BME280;38044;45.148;39.604;2024-03-02T03:37:37;101237.22;;;-1.24;76.80
52032;BME280;38044;45.148;39.604;2024-03-02T03:40:04;101247.59;;;-1.16;77.06
52032;BME280;38044;45.148;39.604;2024-03-02T03:42:36;101249.22;;;-1.15;77.03
52032;BME280;38044;45.148;39.604;2024-03-02T03:45:03;101268.16;;;-1.04;76.96
52032;BME280;38044;45.148;39.604;2024-03-02T03:47:29;101264.06;;;-1.07;77.16
52032;BME280;38044;45.148;39.604;2024-03-02T03:49:56;101258.00;;;-1.07;77.01
52032;BME280;38044;45.148;39.604;2024-03-02T03:52:22;101248.47;;;-1.08;76.99
52032;BME280;38044;45.148;39.604;2024-03-02T03:54:48;101252.09;;;-1.09;77.14
52032;BME280;38044;45.148;39.604;2024-03-02T03:57:14;101245.38;;;-1.12;77.07
52032;BME280;38044;45.148;39.604;2024-03-02T03:59:39;101249.44;;;-1.09;77.11
52032;BME280;38044;45.148;39.604;2024-03-02T04:02:06;101247.84;;;-1.10;76.72
52032;BME280;38044;45.148;39.604;2024-03-02T04:04:33;101239.28;;;-1.13;76.92
52032;BME280;38044;45.148;39.604;2024-03-02T04:07:01;101239.13;;;-1.04;76.51
52032;BME280;38044;45.148;39.604;2024-03-02T04:09:27;101225.94;;;-1.04;76.63
52032;BME280;38044;45.148;39.604;2024-03-02T04:11:53;101222.28;;;-1.03;76.41
52032;BME280;38044;45.148;39.604;2024-03-02T04:14:19;101215.16;;;-1.09;76.32
52032;BME280;38044;45.148;39.604;2024-03-02T04:16:45;101225.53;;;-0.95;75.98
52032;BME280;38044;45.148;39.604;2024-03-02T04:19:11;101237.19;;;-0.82;75.96
52032;BME280;38044;45.148;39.604;2024-03-02T04:21:37;101237.00;;;-0.68;75.58
52032;BME280;38044;45.148;39.604;2024-03-02T04:24:03;101232.13;;;-0.57;75.22
52032;BME280;38044;45.148;39.604;2024-03-02T04:26:29;101219.97;;;-0.45;74.48
52032;BME280;38044;45.148;39.604;2024-03-02T04:28:55;101224.84;;;-0.29;74.31
52032;BME280;38044;45.148;39.604;2024-03-02T04:31:21;101220.41;;;-0.21;73.84
52032;BME280;38044;45.148;39.604;2024-03-02T04:33:47;101219.59;;;-0.15;73.56
52032;BME280;38044;45.148;39.604;2024-03-02T04:36:13;101228.13;;;0.07;73.23
52032;BME280;38044;45.148;39.604;2024-03-02T04:38:39;101223.19;;;0.43;72.23
52032;BME280;38044;45.148;39.604;2024-03-02T04:41:05;101234.44;;;0.77;71.21
52032;BME280;38044;45.148;39.604;2024-03-02T04:43:34;101216.94;;;0.83;70.63
52032;BME280;38044;45.148;39.604;2024-03-02T04:46:00;101226.00;;;1.07;69.72
52032;BME280;38044;45.148;39.604;2024-03-02T04:48:26;101229.03;;;1.10;69.60
52032;BME280;38044;45.148;39.604;2024-03-02T04:50:52;101231.06;;;1.15;69.15
52032;BME280;38044;45.148;39.604;2024-03-02T04:53:18;101222.94;;;1.73;68.29
52032;BME280;38044;45.148;39.604;2024-03-02T04:55:44;101199.78;;;2.31;66.12
52032;BME280;38044;45.148;39.604;2024-03-02T04:58:31;101214.75;;;3.10;63.81
52032;BME280;38044;45.148;39.604;2024-03-02T05:00:56;101208.63;;;3.10;63.55
52032;BME280;38044;45.148;39.604;2024-03-02T05:03:22;101212.97;;;3.34;62.50
52032;BME280;38044;45.148;39.604;2024-03-02T05:05:49;101209.56;;;3.57;61.77
52032;BME280;38044;45.148;39.604;2024-03-02T05:08:15;101205.59;;;4.02;61.02
52032;BME280;38044;45.148;39.604;2024-03-02T05:10:42;101202.69;;;4.15;59.75
52032;BME280;38044;45.148;39.604;2024-03-02T05:13:08;101217.50;;;4.11;59.73
52032;BME280;38044;45.148;39.604;2024-03-02T05:15:34;101221.19;;;4.34;59.22
52032;BME280;38044;45.148;39.604;2024-03-02T05:18:00;101214.06;;;4.74;58.31
52032;BME280;38044;45.148;39.604;2024-03-02T05:20:28;101217.88;;;5.36;57.27
52032;BME280;38044;45.148;39.604;2024-03-02T05:22:54;101197.53;;;5.63;55.71
52032;BME280;38044;45.148;39.604;2024-03-02T05:25:19;101199.72;;;5.50;55.89
52032;BME280;38044;45.148;39.604;2024-03-02T05:27:45;101189.81;;;5.16;56.25
52032;BME280;38044;45.148;39.604;2024-03-02T05:30:12;101191.03;;;5.26;56.30
52032;BME280;38044;45.148;39.604;2024-03-02T05:32:38;101197.94;;;5.38;55.64
52032;BME280;38044;45.148;39.604;2024-03-02T05:35:04;101193.94;;;5.24;56.13
52032;BME280;38044;45.148;39.604;2024-03-02T05:37:30;101197.59;;;5.35;55.73
52032;BME280;38044;45.148;39.604;2024-03-02T05:39:56;101200.72;;;5.32;55.90
52032;BME280;38044;45.148;39.604;2024-03-02T05:42:22;101175.13;;;5.31;55.86
52032;BME280;38044;45.148;39.604;2024-03-02T05:44:48;101202.91;;;5.97;55.47
52032;BME280;38044;45.148;39.604;2024-03-02T05:47:14;101196.03;;;6.40;53.84
52032;BME280;38044;45.148;39.604;2024-03-02T05:49:39;101194.22;;;7.17;51.97
52032;BME280;38044;45.148;39.604;2024-03-02T05:52:05;101197.19;;;7.15;51.71
52032;BME280;38044;45.148;39.604;2024-03-02T05:54:32;101196.91;;;7.44;51.58
52032;BME280;38044;45.148;39.604;2024-03-02T05:56:58;101181.06;;;8.12;49.61
52032;BME280;38044;45.148;39.604;2024-03-02T05:59:42;101180.00;;;8.13;49.05
52032;BME280;38044;45.148;39.604;2024-03-02T06:02:08;101186.38;;;8.02;49.04
52032;BME280;38044;45.148;39.604;2024-03-02T06:04:34;101187.56;;;7.84;49.67
52032;BME280;38044;45.148;39.604;2024-03-02T06:06:59;101191.25;;;8.10;49.45
52032;BME280;38044;45.148;39.604;2024-03-02T06:09:25;101178.72;;;8.26;49.33
52032;BME280;38044;45.148;39.604;2024-03-02T06:11:51;101201.00;;;8.31;48.51
52032;BME280;38044;45.148;39.604;2024-03-02T06:14:17;101176.81;;;8.16;49.13
52032;BME280;38044;45.148;39.604;2024-03-02T06:16:43;101190.44;;;8.57;48.71
52032;BME280;38044;45.148;39.604;2024-03-02T06:19:09;101186.66;;;8.48;48.43
52032;BME280;38044;45.148;39.604;2024-03-02T06:21:35;101182.88;;;8.49;48.27
52032;BME280;38044;45.148;39.604;2024-03-02T06:24:01;101183.56;;;8.29;48.59
52032;BME280;38044;45.148;39.604;2024-03-02T06:26:27;101174.59;;;8.50;48.83
52032;BME280;38044;45.148;39.604;2024-03-02T06:28:54;101161.25;;;8.66;47.99
52032;BME280;38044;45.148;39.604;2024-03-02T06:31:20;101167.47;;;8.82;48.07
52032;BME280;38044;45.148;39.604;2024-03-02T06:33:46;101177.97;;;9.03;47.48
52032;BME280;38044;45.148;39.604;2024-03-02T06:36:12;101166.50;;;9.54;46.78
52032;BME280;38044;45.148;39.604;2024-03-02T06:38:38;101161.28;;;10.29;45.13
52032;BME280;38044;45.148;39.604;2024-03-02T06:41:06;101167.84;;;10.68;44.61
52032;BME280;38044;45.148;39.604;2024-03-02T06:43:32;101176.84;;;10.37;44.70
52032;BME280;38044;45.148;39.604;2024-03-02T06:45:58;101174.84;;;10.69;44.05
52032;BME280;38044;45.148;39.604;2024-03-02T06:48:23;101179.97;;;11.10;43.57
52032;BME280;38044;45.148;39.604;2024-03-02T06:50:50;101152.63;;;11.37;43.08
52032;BME280;38044;45.148;39.604;2024-03-02T06:53:16;101172.78;;;11.39;43.17
52032;BME280;38044;45.148;39.604;2024-03-02T06:55:43;101156.00;;;11.82;42.16
52032;BME280;38044;45.148;39.604;2024-03-02T06:58:13;101175.31;;;11.60;41.95
52032;BME280;38044;45.148;39.604;2024-03-02T07:00:40;101170.66;;;10.97;43.56
52032;BME280;38044;45.148;39.604;2024-03-02T07:03:07;101153.63;;;11.07;43.99
52032;BME280;38044;45.148;39.604;2024-03-02T07:05:33;101176.88;;;11.66;42.49
52032;BME280;38044;45.148;39.604;2024-03-02T07:07:59;101178.81;;;11.60;43.20
52032;BME280;38044;45.148;39.604;2024-03-02T07:10:25;101168.63;;;11.81;42.89
52032;BME280;38044;45.148;39.604;2024-03-02T07:12:50;101161.34;;;11.18;43.39
52032;BME280;38044;45.148;39.604;2024-03-02T07:15:16;101174.28;;;10.67;44.41
52032;BME280;38044;45.148;39.604;2024-03-02T07:18:00;101179.63;;;10.77;44.80
52032;BME280;38044;45.148;39.604;2024-03-02T07:20:26;101163.91;;;10.99;44.14
52032;BME280;38044;45.148;39.604;2024-03-02T07:22:52;101158.78;;;11.03;43.80
52032;BME280;38044;45.148;39.604;2024-03-02T07:25:18;101157.84;;;10.78;44.67
52032;BME280;38044;45.148;39.604;2024-03-02T07:27:44;101174.13;;;10.48;45.40
52032;BME280;38044;45.148;39.604;2024-03-02T07:30:14;101169.50;;;10.58;45.61
52032;BME280;38044;45.148;39.604;2024-03-02T07:32:41;101166.63;;;10.40;46.87
52032;BME280;38044;45.148;39.604;2024-03-02T07:35:14;101147.84;;;10.84;46.08
52032;BME280;38044;45.148;39.604;2024-03-02T07:37:43;101145.66;;;10.96;45.98
52032;BME280;38044;45.148;39.604;2024-03-02T07:40:10;101163.09;;;11.38;45.11
52032;BME280;38044;45.148;39.604;2024-03-02T07:42:40;101147.44;;;11.75;44.72
52032;BME280;38044;45.148;39.604;2024-03-02T07:45:06;101152.03;;;12.03;44.38
52032;BME280;38044;45.148;39.604;2024-03-02T07:47:35;101142.91;;;12.23;44.00
52032;BME280;38044;45.148;39.604;2024-03-02T07:50:01;101145.66;;;12.42;43.48
52032;BME280;38044;45.148;39.604;2024-03-02T07:52:28;101136.91;;;12.50;43.36
52032;BME280;38044;45.148;39.604;2024-03-02T07:54:54;101121.78;;;12.54;43.60
52032;BME280;38044;45.148;39.604;2024-03-02T07:57:21;101142.09;;;12.84;43.70
52032;BME280;38044;45.148;39.604;2024-03-02T07:59:46;101129.47;;;13.18;42.90
52032;BME280;38044;45.148;39.604;2024-03-02T08:02:12;101128.81;;;13.07;42.87
52032;BME280;38044;45.148;39.604;2024-03-02T08:04:38;101124.59;;;13.01;42.84
52032;BME280;38044;45.148;39.604;2024-03-02T08:07:04;101105.94;;;12.67;43.97
52032;BME280;38044;45.148;39.604;2024-03-02T08:09:30;101119.00;;;12.59;43.50
52032;BME280;38044;45.148;39.604;2024-03-02T08:11:56;101105.06;;;11.85;45.52
52032;BME280;38044;45.148;39.604;2024-03-02T08:14:25;101108.72;;;11.70;45.82
52032;BME280;38044;45.148;39.604;2024-03-02T08:16:51;101124.72;;;11.57;46.54
52032;BME280;38044;45.148;39.604;2024-03-02T08:19:17;101123.19;;;12.04;45.43
52032;BME280;38044;45.148;39.604;2024-03-02T08:21:43;101102.16;;;12.06;46.07
52032;BME280;38044;45.148;39.604;2024-03-02T08:24:10;101100.84;;;12.46;45.75
52032;BME280;38044;45.148;39.604;2024-03-02T08:26:35;101093.34;;;12.81;44.94
52032;BME280;38044;45.148;39.604;2024-03-02T08:29:01;101103.66;;;13.12;43.73
52032;BME280;38044;45.148;39.604;2024-03-02T08:31:29;101104.31;;;13.22;44.04
52032;BME280;38044;45.148;39.604;2024-03-02T08:33:55;101093.06;;;12.82;44.94
52032;BME280;38044;45.148;39.604;2024-03-02T08:36:22;101089.63;;;12.77;44.78
52032;BME280;38044;45.148;39.604;2024-03-02T08:38:49;101079.66;;;13.10;44.33
52032;BME280;38044;45.148;39.604;2024-03-02T08:41:15;101098.53;;;13.10;44.57
52032;BME280;38044;45.148;39.604;2024-03-02T08:43:42;101094.47;;;13.32;44.63
52032;BME280;38044;45.148;39.604;2024-03-02T08:46:08;101087.47;;;13.44;46.92
52032;BME280;38044;45.148;39.604;2024-03-02T08:48:34;101077.88;;;13.38;46.29
52032;BME280;38044;45.148;39.604;2024-03-02T08:51:00;101089.38;;;13.44;44.50
52032;BME280;38044;45.148;39.604;2024-03-02T08:53:26;101085.59;;;13.45;44.63
52032;BME280;38044;45.148;39.604;2024-03-02T08:55:52;101073.38;;;13.47;43.81
52032;BME280;38044;45.148;39.604;2024-03-02T08:58:18;101072.88;;;13.13;44.10
52032;BME280;38044;45.148;39.604;2024-03-02T09:00:46;101087.34;;;13.03;44.51
52032;BME280;38044;45.148;39.604;2024-03-02T09:03:12;101081.75;;;12.80;44.70
52032;BME280;38044;45.148;39.604;2024-03-02T09:05:38;101076.03;;;13.01;44.96
52032;BME280;38044;45.148;39.604;2024-03-02T09:08:04;101070.16;;;13.32;44.06
52032;BME280;38044;45.148;39.604;2024-03-02T09:10:30;101056.47;;;13.09;44.87
52032;BME280;38044;45.148;39.604;2024-03-02T09:12:57;101067.69;;;13.49;43.72
52032;BME280;38044;45.148;39.604;2024-03-02T09:15:22;101067.22;;;13.74;43.24
52032;BME280;38044;45.148;39.604;2024-03-02T09:17:48;101063.41;;;13.89;42.56
52032;BME280;38044;45.148;39.604;2024-03-02T09:20:14;101053.91;;;13.78;43.30
52032;BME280;38044;45.148;39.604;2024-03-02T09:22:42;101061.03;;;13.88;43.47
52032;BME280;38044;45.148;39.604;2024-03-02T09:25:08;101046.91;;;13.77;42.91
52032;BME280;38044;45.148;39.604;2024-03-02T09:27:37;101041.00;;;13.61;43.72
52032;BME280;38044;45.148;39.604;2024-03-02T09:30:07;101039.50;;;13.55;43.48
52032;BME280;38044;45.148;39.604;2024-03-02T09:32:33;101060.59;;;13.67;43.93
52032;BME280;38044;45.148;39.604;2024-03-02T09:34:59;101045.91;;;14.01;42.78
52032;BME280;38044;45.148;39.604;2024-03-02T09:37:26;101047.97;;;14.17;42.05
52032;BME280;38044;45.148;39.604;2024-03-02T09:39:52;101035.13;;;14.37;42.21
52032;BME280;38044;45.148;39.604;2024-03-02T09:42:18;101045.88;;;14.64;41.61
52032;BME280;38044;45.148;39.604;2024-03-02T09:44:45;101036.91;;;14.55;41.67
52032;BME280;38044;45.148;39.604;2024-03-02T09:47:11;101049.81;;;14.45;41.53
52032;BME280;38044;45.148;39.604;2024-03-02T09:49:37;101037.13;;;14.45;41.86
52032;BME280;38044;45.148;39.604;2024-03-02T09:52:03;101035.13;;;14.37;41.37
52032;BME280;38044;45.148;39.604;2024-03-02T09:54:30;101032.59;;;13.77;42.68
52032;BME280;38044;45.148;39.604;2024-03-02T09:56:56;101036.00;;;13.68;44.05
52032;BME280;38044;45.148;39.604;2024-03-02T09:59:22;101035.09;;;13.73;43.13
52032;BME280;38044;45.148;39.604;2024-03-02T10:02:01;101037.28;;;14.12;42.55
52032;BME280;38044;45.148;39.604;2024-03-02T10:04:30;101019.44;;;14.25;41.87
52032;BME280;38044;45.148;39.604;2024-03-02T10:07:18;101027.44;;;14.67;41.57
52032;BME280;38044;45.148;39.604;2024-03-02T10:09:45;101019.19;;;14.94;41.32
52032;BME280;38044;45.148;39.604;2024-03-02T10:12:12;101023.31;;;14.33;41.88
52032;BME280;38044;45.148;39.604;2024-03-02T10:14:38;101012.75;;;13.95;41.65
52032;BME280;38044;45.148;39.604;2024-03-02T10:17:06;101027.34;;;14.08;41.69
52032;BME280;38044;45.148;39.604;2024-03-02T10:19:33;101019.66;;;14.01;41.90
52032;BME280;38044;45.148;39.604;2024-03-02T10:22:01;101022.59;;;13.91;42.70
52032;BME280;38044;45.148;39.604;2024-03-02T10:24:35;101013.72;;;14.27;42.06
52032;BME280;38044;45.148;39.604;2024-03-02T10:27:15;101021.09;;;14.35;41.09
52032;BME280;38044;45.148;39.604;2024-03-02T10:29:41;101002.16;;;13.98;41.51
52032;BME280;38044;45.148;39.604;2024-03-02T10:32:10;100994.38;;;13.69;41.87
52032;BME280;38044;45.148;39.604;2024-03-02T10:34:39;100999.78;;;13.69;43.52
52032;BME280;38044;45.148;39.604;2024-03-02T10:37:06;100987.47;;;13.77;42.77
52032;BME280;38044;45.148;39.604;2024-03-02T10:39:34;100998.13;;;13.96;41.85
52032;BME280;38044;45.148;39.604;2024-03-02T10:42:07;100989.13;;;14.14;41.33
52032;BME280;38044;45.148;39.604;2024-03-02T10:44:33;100988.34;;;14.00;41.15
52032;BME280;38044;45.148;39.604;2024-03-02T10:47:01;100984.16;;;13.94;41.89
52032;BME280;38044;45.148;39.604;2024-03-02T10:49:31;100987.25;;;13.87;41.43
52032;BME280;38044;45.148;39.604;2024-03-02T10:51:58;100985.47;;;13.83;42.38
52032;BME280;38044;45.148;39.604;2024-03-02T10:54:25;100984.97;;;13.81;42.27
52032;BME280;38044;45.148;39.604;2024-03-02T10:57:01;100967.78;;;13.63;42.25
52032;BME280;38044;45.148;39.604;2024-03-02T10:59:34;100975.88;;;13.49;42.89
52032;BME280;38044;45.148;39.604;2024-03-02T11:02:02;100977.97;;;13.38;42.41
52032;BME280;38044;45.148;39.604;2024-03-02T11:04:30;100972.88;;;13.04;43.77
52032;BME280;38044;45.148;39.604;2024-03-02T11:07:04;100965.75;;;13.27;43.45
52032;BME280;38044;45.148;39.604;2024-03-02T11:09:33;100971.75;;;13.38;43.55
52032;BME280;38044;45.148;39.604;2024-03-02T11:12:01;100961.94;;;13.42;42.71
52032;BME280;38044;45.148;39.604;2024-03-02T11:14:30;100952.97;;;13.33;42.83
52032;BME280;38044;45.148;39.604;2024-03-02T11:17:00;100962.75;;;13.28;43.34
52032;BME280;38044;45.148;39.604;2024-03-02T11:19:28;100954.72;;;13.23;43.05
52032;BME280;38044;45.148;39.604;2024-03-02T11:21:54;100950.94;;;13.11;43.46
52032;BME280;38044;45.148;39.604;2024-03-02T11:27:04;100957.50;;;13.18;44.20
52032;BME280;38044;45.148;39.604;2024-03-02T11:32:13;100936.75;;;13.33;42.42
52032;BME280;38044;45.148;39.604;2024-03-02T11:34:44;100951.16;;;13.42;42.86
52032;BME280;38044;45.148;39.604;2024-03-02T11:37:12;100951.97;;;13.28;43.28
52032;BME280;38044;45.148;39.604;2024-03-02T11:39:39;100947.66;;;13.41;43.87
52032;BME280;38044;45.148;39.604;2024-03-02T11:42:08;100946.75;;;13.60;43.06
52032;BME280;38044;45.148;39.604;2024-03-02T11:44:42;100934.66;;;13.57;43.23
52032;BME280;38044;45.148;39.604;2024-03-02T11:47:11;100932.94;;;13.61;43.06
52032;BME280;38044;45.148;39.604;2024-03-02T11:49:48;100926.22;;;13.72;42.45
52032;BME280;38044;45.148;39.604;2024-03-02T11:52:15;100932.66;;;13.63;42.64
52032;BME280;38044;45.148;39.604;2024-03-02T11:54:44;100915.56;;;13.54;42.72
52032;BME280;38044;45.148;39.604;2024-03-02T11:57:21;100926.13;;;13.64;43.22
52032;BME280;38044;45.148;39.604;2024-03-02T11:59:48;100920.34;;;13.57;42.72
52032;BME280;38044;45.148;39.604;2024-03-02T12:02:20;100923.75;;;13.35;43.24
52032;BME280;38044;45.148;39.604;2024-03-02T12:04:47;100934.06;;;13.46;42.80
52032;BME280;38044;45.148;39.604;2024-03-02T12:07:21;100935.97;;;13.46;42.81
52032;BME280;38044;45.148;39.604;2024-03-02T12:09:48;100941.13;;;13.15;44.26
52032;BME280;38044;45.148;39.604;2024-03-02T12:12:14;100921.00;;;13.07;44.10
52032;BME280;38044;45.148;39.604;2024-03-02T12:14:53;100932.75;;;13.16;44.55
52032;BME280;38044;45.148;39.604;2024-03-02T12:17:21;100924.13;;;13.14;43.71
52032;BME280;38044;45.148;39.604;2024-03-02T12:19:48;100920.91;;;13.12;43.74
52032;BME280;38044;45.148;39.604;2024-03-02T12:22:14;100916.19;;;12.90;43.82
52032;BME280;38044;45.148;39.604;2024-03-02T12:24:41;100948.47;;;12.95;43.67
52032;BME280;38044;45.148;39.604;2024-03-02T12:27:12;100935.56;;;12.78;44.12
52032;BME280;38044;45.148;39.604;2024-03-02T12:29:39;100941.03;;;12.73;43.60
52032;BME280;38044;45.148;39.604;2024-03-02T12:32:05;100924.91;;;12.54;43.95
52032;BME280;38044;45.148;39.604;2024-03-02T12:34:31;100954.56;;;12.54;43.71
52032;BME280;38044;45.148;39.604;2024-03-02T12:36:58;100931.56;;;12.43;43.71
52032;BME280;38044;45.148;39.604;2024-03-02T12:39:24;100923.28;;;12.21;44.03
52032;BME280;38044;45.148;39.604;2024-03-02T12:41:50;100942.22;;;12.15;44.48
52032;BME280;38044;45.148;39.604;2024-03-02T12:44:19;100945.69;;;12.16;44.21
52032;BME280;38044;45.148;39.604;2024-03-02T12:46:46;100960.00;;;12.16;43.68
52032;BME280;38044;45.148;39.604;2024-03-02T12:49:14;100947.19;;;12.08;43.43